sensor_id;sensor_type;location;lat;lon;timestamp;temperature;humidity
74416;SHT31;62850;42.428;25.618;2024-03-02T00:02:24;8.49;81.53
74416;SHT31;62850;42.428;25.618;2024-03-02T00:04:50;8.52;82.06
74416;SHT31;62850;42.428;25.618;2024-03-02T00:07:17;8.45;82.10
74416;SHT31;62850;42.428;25.618;2024-03-02T00:09:42;8.48;82.64
74416;SHT31;62850;42.428;25.618;2024-03-02T00:12:08;8.53;82.46
74416;SHT31;62850;42.428;25.618;2024-03-02T00:14:36;8.37;82.70
74416;SHT31;62850;42.428;25.618;2024-03-02T00:17:02;8.41;83.26
74416;SHT31;62850;42.428;25.618;2024-03-02T00:19:28;8.30;83.32
74416;SHT31;62850;42.428;25.618;2024-03-02T00:21:54;8.35;83.47
74416;SHT31;62850;42.428;25.618;2024-03-02T00:24:34;8.35;83.68
74416;SHT31;62850;42.428;25.618;2024-03-02T00:27:00;8.44;83.57
74416;SHT31;62850;42.428;25.618;2024-03-02T00:29:27;8.37;83.92
74416;SHT31;62850;42.428;25.618;2024-03-02T00:31:53;8.31;84.36
74416;SHT31;62850;42.428;25.618;2024-03-02T00:34:19;8.39;84.19
74416;SHT31;62850;42.428;25.618;2024-03-02T00:36:45;8.45;84.17
74416;SHT31;62850;42.428;25.618;2024-03-02T00:39:12;8.44;84.17
74416;SHT31;62850;42.428;25.618;2024-03-02T00:41:41;8.35;84.68
74416;SHT31;62850;42.428;25.618;2024-03-02T00:44:09;8.41;84.41
74416;SHT31;62850;42.428;25.618;2024-03-02T00:46:40;8.44;84.36
74416;SHT31;62850;42.428;25.618;2024-03-02T00:49:18;8.46;84.09
74416;SHT31;62850;42.428;25.618;2024-03-02T00:51:47;8.46;84.04
74416;SHT31;62850;42.428;25.618;2024-03-02T00:54:14;8.53;84.22
74416;SHT31;62850;42.428;25.618;2024-03-02T00:56:41;8.55;83.82
74416;SHT31;62850;42.428;25.618;2024-03-02T00:59:06;8.58;83.62
74416;SHT31;62850;42.428;25.618;2024-03-02T01:01:33;8.59;83.50
74416;SHT31;62850;42.428;25.618;2024-03-02T01:03:59;8.59;83.50
74416;SHT31;62850;42.428;25.618;2024-03-02T01:06:25;8.63;83.31
74416;SHT31;62850;42.428;25.618;2024-03-02T01:08:50;8.55;83.32
74416;SHT31;62850;42.428;25.618;2024-03-02T01:11:17;8.60;83.37
74416;SHT31;62850;42.428;25.618;2024-03-02T01:13:43;8.70;83.26
74416;SHT31;62850;42.428;25.618;2024-03-02T01:16:09;8.77;82.86
74416;SHT31;62850;42.428;25.618;2024-03-02T01:18:34;8.73;82.66
74416;SHT31;62850;42.428;25.618;2024-03-02T01:21:00;8.69;82.63
74416;SHT31;62850;42.428;25.618;2024-03-02T01:23:25;8.70;83.13
74416;SHT31;62850;42.428;25.618;2024-03-02T01:25:51;8.72;82.80
74416;SHT31;62850;42.428;25.618;2024-03-02T01:28:18;8.63;83.10
74416;SHT31;62850;42.428;25.618;2024-03-02T01:30:44;8.53;83.42
74416;SHT31;62850;42.428;25.618;2024-03-02T01:33:09;8.58;83.52
74416;SHT31;62850;42.428;25.618;2024-03-02T01:35:35;8.52;83.55
74416;SHT31;62850;42.428;25.618;2024-03-02T01:38:01;8.46;83.81
74416;SHT31;62850;42.428;25.618;2024-03-02T01:40:26;8.39;84.20
74416;SHT31;62850;42.428;25.618;2024-03-02T01:42:53;8.46;84.14
74416;SHT31;62850;42.428;25.618;2024-03-02T01:45:28;8.48;83.93
74416;SHT31;62850;42.428;25.618;2024-03-02T01:47:53;8.42;83.97
74416;SHT31;62850;42.428;25.618;2024-03-02T01:50:29;8.49;83.95
74416;SHT31;62850;42.428;25.618;2024-03-02T01:52:56;8.56;83.79
74416;SHT31;62850;42.428;25.618;2024-03-02T01:55:21;8.62;83.55
74416;SHT31;62850;42.428;25.618;2024-03-02T01:57:48;8.63;83.23
74416;SHT31;62850;42.428;25.618;2024-03-02T02:00:14;8.63;83.12
74416;SHT31;62850;42.428;25.618;2024-03-02T02:02:40;8.60;83.14
74416;SHT31;62850;42.428;25.618;2024-03-02T02:05:06;8.63;83.13
74416;SHT31;62850;42.428;25.618;2024-03-02T02:07:31;8.60;83.06
74416;SHT31;62850;42.428;25.618;2024-03-02T02:09:57;8.56;83.04
74416;SHT31;62850;42.428;25.618;2024-03-02T02:12:23;8.66;82.89
74416;SHT31;62850;42.428;25.618;2024-03-02T02:14:49;8.53;82.72
74416;SHT31;62850;42.428;25.618;2024-03-02T02:17:17;8.52;83.12
74416;SHT31;62850;42.428;25.618;2024-03-02T02:19:42;8.51;82.85
74416;SHT31;62850;42.428;25.618;2024-03-02T02:22:11;8.58;82.80
74416;SHT31;62850;42.428;25.618;2024-03-02T02:24:42;8.48;82.86
74416;SHT31;62850;42.428;25.618;2024-03-02T02:27:09;8.49;82.96
74416;SHT31;62850;42.428;25.618;2024-03-02T02:29:35;8.55;82.79
74416;SHT31;62850;42.428;25.618;2024-03-02T02:32:01;8.56;82.63
74416;SHT31;62850;42.428;25.618;2024-03-02T02:34:26;8.58;82.46
74416;SHT31;62850;42.428;25.618;2024-03-02T02:36:52;8.58;82.51
74416;SHT31;62850;42.428;25.618;2024-03-02T02:39:20;8.63;82.22
74416;SHT31;62850;42.428;25.618;2024-03-02T02:41:46;8.68;81.99
74416;SHT31;62850;42.428;25.618;2024-03-02T02:44:11;8.76;81.82
74416;SHT31;62850;42.428;25.618;2024-03-02T02:46:38;8.83;81.56
74416;SHT31;62850;42.428;25.618;2024-03-02T02:49:04;8.90;81.10
74416;SHT31;62850;42.428;25.618;2024-03-02T02:51:29;8.90;80.81
74416;SHT31;62850;42.428;25.618;2024-03-02T02:53:55;8.96;80.76
74416;SHT31;62850;42.428;25.618;2024-03-02T02:56:20;8.89;80.70
74416;SHT31;62850;42.428;25.618;2024-03-02T02:58:46;8.87;80.68
74416;SHT31;62850;42.428;25.618;2024-03-02T03:01:11;8.86;80.49
74416;SHT31;62850;42.428;25.618;2024-03-02T03:03:37;8.82;80.60
74416;SHT31;62850;42.428;25.618;2024-03-02T03:06:02;8.76;80.82
74416;SHT31;62850;42.428;25.618;2024-03-02T03:08:28;8.73;80.89
74416;SHT31;62850;42.428;25.618;2024-03-02T03:10:54;8.77;80.74
74416;SHT31;62850;42.428;25.618;2024-03-02T03:13:19;8.73;80.91
74416;SHT31;62850;42.428;25.618;2024-03-02T03:15:45;8.69;81.71
74416;SHT31;62850;42.428;25.618;2024-03-02T03:18:10;8.66;82.02
74416;SHT31;62850;42.428;25.618;2024-03-02T03:20:36;8.59;82.07
74416;SHT31;62850;42.428;25.618;2024-03-02T03:23:01;8.48;82.45
74416;SHT31;62850;42.428;25.618;2024-03-02T03:25:29;8.52;82.19
74416;SHT31;62850;42.428;25.618;2024-03-02T03:27:54;8.42;82.09
74416;SHT31;62850;42.428;25.618;2024-03-02T03:30:20;8.39;82.24
74416;SHT31;62850;42.428;25.618;2024-03-02T03:32:45;8.35;82.47
74416;SHT31;62850;42.428;25.618;2024-03-02T03:35:13;8.39;82.64
74416;SHT31;62850;42.428;25.618;2024-03-02T03:37:40;8.44;82.24
74416;SHT31;62850;42.428;25.618;2024-03-02T03:40:06;8.51;81.83
74416;SHT31;62850;42.428;25.618;2024-03-02T03:42:38;8.53;81.60
74416;SHT31;62850;42.428;25.618;2024-03-02T03:45:04;8.56;81.53
74416;SHT31;62850;42.428;25.618;2024-03-02T03:47:33;8.52;81.32
74416;SHT31;62850;42.428;25.618;2024-03-02T03:49:58;8.51;81.50
74416;SHT31;62850;42.428;25.618;2024-03-02T03:52:24;8.49;81.67
74416;SHT31;62850;42.428;25.618;2024-03-02T03:54:50;8.59;81.36
74416;SHT31;62850;42.428;25.618;2024-03-02T03:57:16;8.62;81.19
74416;SHT31;62850;42.428;25.618;2024-03-02T03:59:42;8.60;80.99
74416;SHT31;62850;42.428;25.618;2024-03-02T04:02:08;8.66;80.71
74416;SHT31;62850;42.428;25.618;2024-03-02T04:04:34;8.59;80.47
74416;SHT31;62850;42.428;25.618;2024-03-02T04:06:59;8.58;80.52
74416;SHT31;62850;42.428;25.618;2024-03-02T04:09:25;8.65;80.39
74416;SHT31;62850;42.428;25.618;2024-03-02T04:11:51;8.59;80.41
74416;SHT31;62850;42.428;25.618;2024-03-02T04:14:16;8.65;80.30
74416;SHT31;62850;42.428;25.618;2024-03-02T04:16:42;8.72;80.13
74416;SHT31;62850;42.428;25.618;2024-03-02T04:19:07;8.73;79.97
74416;SHT31;62850;42.428;25.618;2024-03-02T04:21:33;8.66;80.24
74416;SHT31;62850;42.428;25.618;2024-03-02T04:23:58;8.63;80.62
74416;SHT31;62850;42.428;25.618;2024-03-02T04:26:25;8.63;80.68
74416;SHT31;62850;42.428;25.618;2024-03-02T04:28:53;8.65;80.77
74416;SHT31;62850;42.428;25.618;2024-03-02T04:31:19;8.69;80.58
74416;SHT31;62850;42.428;25.618;2024-03-02T04:33:45;8.73;80.54
74416;SHT31;62850;42.428;25.618;2024-03-02T04:36:10;8.72;80.59
74416;SHT31;62850;42.428;25.618;2024-03-02T04:38:36;8.72;80.98
74416;SHT31;62850;42.428;25.618;2024-03-02T04:41:04;8.70;80.78
74416;SHT31;62850;42.428;25.618;2024-03-02T04:43:31;8.56;81.18
74416;SHT31;62850;42.428;25.618;2024-03-02T04:45:58;8.49;81.58
74416;SHT31;62850;42.428;25.618;2024-03-02T04:48:23;8.53;81.58
74416;SHT31;62850;42.428;25.618;2024-03-02T04:50:49;8.53;81.47
74416;SHT31;62850;42.428;25.618;2024-03-02T04:53:14;8.55;81.44
74416;SHT31;62850;42.428;25.618;2024-03-02T04:55:40;8.53;81.37
74416;SHT31;62850;42.428;25.618;2024-03-02T04:58:05;8.63;81.19
74416;SHT31;62850;42.428;25.618;2024-03-02T05:00:32;8.65;81.29
74416;SHT31;62850;42.428;25.618;2024-03-02T05:02:57;8.62;81.18
74416;SHT31;62850;42.428;25.618;2024-03-02T05:05:23;8.68;80.93
74416;SHT31;62850;42.428;25.618;2024-03-02T05:07:48;8.68;80.72
74416;SHT31;62850;42.428;25.618;2024-03-02T05:10:14;8.58;80.81
74416;SHT31;62850;42.428;25.618;2024-03-02T05:12:40;8.55;80.90
74416;SHT31;62850;42.428;25.618;2024-03-02T05:15:12;8.58;81.02
74416;SHT31;62850;42.428;25.618;2024-03-02T05:17:38;8.56;81.08
74416;SHT31;62850;42.428;25.618;2024-03-02T05:20:07;8.68;80.81
74416;SHT31;62850;42.428;25.618;2024-03-02T05:22:33;8.60;80.78
74416;SHT31;62850;42.428;25.618;2024-03-02T05:24:59;8.66;80.52
74416;SHT31;62850;42.428;25.618;2024-03-02T05:27:26;8.66;80.49
74416;SHT31;62850;42.428;25.618;2024-03-02T05:29:52;8.73;80.26
74416;SHT31;62850;42.428;25.618;2024-03-02T05:32:17;8.76;79.98
74416;SHT31;62850;42.428;25.618;2024-03-02T05:34:43;8.76;80.03
74416;SHT31;62850;42.428;25.618;2024-03-02T05:37:08;8.69;79.87
74416;SHT31;62850;42.428;25.618;2024-03-02T05:39:33;8.68;80.38
74416;SHT31;62850;42.428;25.618;2024-03-02T05:41:59;8.62;80.12
74416;SHT31;62850;42.428;25.618;2024-03-02T05:44:25;8.62;80.26
74416;SHT31;62850;42.428;25.618;2024-03-02T05:46:50;8.63;80.83
74416;SHT31;62850;42.428;25.618;2024-03-02T05:49:15;8.63;80.91
74416;SHT31;62850;42.428;25.618;2024-03-02T05:51:41;8.65;80.85
74416;SHT31;62850;42.428;25.618;2024-03-02T05:54:07;8.65;80.44
74416;SHT31;62850;42.428;25.618;2024-03-02T05:56:32;8.52;80.65
74416;SHT31;62850;42.428;25.618;2024-03-02T05:58:58;8.53;81.48
74416;SHT31;62850;42.428;25.618;2024-03-02T06:04:04;8.65;81.15
74416;SHT31;62850;42.428;25.618;2024-03-02T06:06:29;8.69;81.58
74416;SHT31;62850;42.428;25.618;2024-03-02T06:08:55;8.69;81.48
74416;SHT31;62850;42.428;25.618;2024-03-02T06:11:20;8.60;81.93
74416;SHT31;62850;42.428;25.618;2024-03-02T06:13:46;8.79;83.31
74416;SHT31;62850;42.428;25.618;2024-03-02T06:16:11;8.79;81.71
74416;SHT31;62850;42.428;25.618;2024-03-02T06:18:37;8.84;81.23
74416;SHT31;62850;42.428;25.618;2024-03-02T06:21:02;8.87;80.81
74416;SHT31;62850;42.428;25.618;2024-03-02T06:23:28;8.89;80.47
74416;SHT31;62850;42.428;25.618;2024-03-02T06:25:54;8.90;80.54
74416;SHT31;62850;42.428;25.618;2024-03-02T06:28:19;8.91;80.46
74416;SHT31;62850;42.428;25.618;2024-03-02T06:30:45;8.89;80.60
74416;SHT31;62850;42.428;25.618;2024-03-02T06:33:11;8.97;80.60
74416;SHT31;62850;42.428;25.618;2024-03-02T06:35:36;9.06;80.37
74416;SHT31;62850;42.428;25.618;2024-03-02T06:38:02;9.17;80.11
74416;SHT31;62850;42.428;25.618;2024-03-02T06:40:28;9.14;80.04
74416;SHT31;62850;42.428;25.618;2024-03-02T06:42:53;9.13;79.67
74416;SHT31;62850;42.428;25.618;2024-03-02T06:45:19;9.16;79.53
74416;SHT31;62850;42.428;25.618;2024-03-02T06:47:44;9.11;79.50
74416;SHT31;62850;42.428;25.618;2024-03-02T06:50:10;9.23;79.39
74416;SHT31;62850;42.428;25.618;2024-03-02T06:52:35;9.13;79.50
74416;SHT31;62850;42.428;25.618;2024-03-02T06:55:01;9.06;79.59
74416;SHT31;62850;42.428;25.618;2024-03-02T06:57:27;9.16;79.50
74416;SHT31;62850;42.428;25.618;2024-03-02T06:59:52;9.27;78.93
74416;SHT31;62850;42.428;25.618;2024-03-02T07:02:20;9.40;79.66
74416;SHT31;62850;42.428;25.618;2024-03-02T07:04:46;9.45;79.15
74416;SHT31;62850;42.428;25.618;2024-03-02T07:07:12;9.48;78.46
74416;SHT31;62850;42.428;25.618;2024-03-02T07:09:37;9.52;78.26
74416;SHT31;62850;42.428;25.618;2024-03-02T07:12:03;9.52;78.41
74416;SHT31;62850;42.428;25.618;2024-03-02T07:14:29;9.44;78.86
74416;SHT31;62850;42.428;25.618;2024-03-02T07:17:14;9.55;78.68
74416;SHT31;62850;42.428;25.618;2024-03-02T07:19:40;9.57;78.63
74416;SHT31;62850;42.428;25.618;2024-03-02T07:22:06;9.52;78.88
74416;SHT31;62850;42.428;25.618;2024-03-02T07:24:39;9.61;78.79
74416;SHT31;62850;42.428;25.618;2024-03-02T07:27:04;9.54;78.87
74416;SHT31;62850;42.428;25.618;2024-03-02T07:29:30;9.61;78.84
74416;SHT31;62850;42.428;25.618;2024-03-02T07:31:56;9.71;78.80
74416;SHT31;62850;42.428;25.618;2024-03-02T07:34:21;9.77;78.09
74416;SHT31;62850;42.428;25.618;2024-03-02T07:36:47;9.68;78.27
74416;SHT31;62850;42.428;25.618;2024-03-02T07:39:12;9.77;78.49
74416;SHT31;62850;42.428;25.618;2024-03-02T07:41:38;9.82;78.10
74416;SHT31;62850;42.428;25.618;2024-03-02T07:44:03;9.78;78.13
74416;SHT31;62850;42.428;25.618;2024-03-02T07:46:29;9.82;78.10
74416;SHT31;62850;42.428;25.618;2024-03-02T07:48:54;9.81;77.84
74416;SHT31;62850;42.428;25.618;2024-03-02T07:51:20;9.79;78.04
74416;SHT31;62850;42.428;25.618;2024-03-02T07:53:45;9.82;77.95
74416;SHT31;62850;42.428;25.618;2024-03-02T07:56:12;9.89;77.89
74416;SHT31;62850;42.428;25.618;2024-03-02T07:58:37;9.89;77.86
74416;SHT31;62850;42.428;25.618;2024-03-02T08:01:03;9.88;77.59
74416;SHT31;62850;42.428;25.618;2024-03-02T08:03:29;9.86;77.80
74416;SHT31;62850;42.428;25.618;2024-03-02T08:05:54;9.83;77.88
74416;SHT31;62850;42.428;25.618;2024-03-02T08:08:20;9.81;78.09
74416;SHT31;62850;42.428;25.618;2024-03-02T08:10:45;9.82;77.92
74416;SHT31;62850;42.428;25.618;2024-03-02T08:13:10;9.79;78.13
74416;SHT31;62850;42.428;25.618;2024-03-02T08:15:36;9.77;77.83
74416;SHT31;62850;42.428;25.618;2024-03-02T08:18:01;9.69;78.45
74416;SHT31;62850;42.428;25.618;2024-03-02T08:20:27;9.55;78.69
74416;SHT31;62850;42.428;25.618;2024-03-02T08:22:52;9.55;78.88
74416;SHT31;62850;42.428;25.618;2024-03-02T08:25:20;9.69;78.86
74416;SHT31;62850;42.428;25.618;2024-03-02T08:27:46;9.77;78.47
74416;SHT31;62850;42.428;25.618;2024-03-02T08:30:12;9.79;78.19
74416;SHT31;62850;42.428;25.618;2024-03-02T08:32:37;9.78;78.14
74416;SHT31;62850;42.428;25.618;2024-03-02T08:35:03;9.82;78.04
74416;SHT31;62850;42.428;25.618;2024-03-02T08:37:29;9.89;77.99
74416;SHT31;62850;42.428;25.618;2024-03-02T08:39:55;9.90;78.26
74416;SHT31;62850;42.428;25.618;2024-03-02T08:42:20;9.88;77.73
74416;SHT31;62850;42.428;25.618;2024-03-02T08:44:46;9.95;77.66
74416;SHT31;62850;42.428;25.618;2024-03-02T08:47:11;10.05;77.55
74416;SHT31;62850;42.428;25.618;2024-03-02T08:49:37;10.08;77.14
74416;SHT31;62850;42.428;25.618;2024-03-02T08:52:02;10.12;77.09
74416;SHT31;62850;42.428;25.618;2024-03-02T08:54:28;10.12;76.74
74416;SHT31;62850;42.428;25.618;2024-03-02T08:56:53;10.16;76.55
74416;SHT31;62850;42.428;25.618;2024-03-02T08:59:19;10.19;76.68
74416;SHT31;62850;42.428;25.618;2024-03-02T09:01:45;10.29;76.17
74416;SHT31;62850;42.428;25.618;2024-03-02T09:04:11;10.27;76.24
74416;SHT31;62850;42.428;25.618;2024-03-02T09:06:36;10.38;75.97
74416;SHT31;62850;42.428;25.618;2024-03-02T09:09:02;10.34;76.19
74416;SHT31;62850;42.428;25.618;2024-03-02T09:11:28;10.29;76.19
74416;SHT31;62850;42.428;25.618;2024-03-02T09:13:53;10.37;75.80
74416;SHT31;62850;42.428;25.618;2024-03-02T09:16:21;10.47;75.49
74416;SHT31;62850;42.428;25.618;2024-03-02T09:18:46;10.60;75.20
74416;SHT31;62850;42.428;25.618;2024-03-02T09:21:12;10.68;75.24
74416;SHT31;62850;42.428;25.618;2024-03-02T09:23:38;10.79;75.10
74416;SHT31;62850;42.428;25.618;2024-03-02T09:26:05;10.78;74.67
74416;SHT31;62850;42.428;25.618;2024-03-02T09:28:30;10.85;74.43
74416;SHT31;62850;42.428;25.618;2024-03-02T09:30:56;10.84;74.41
74416;SHT31;62850;42.428;25.618;2024-03-02T09:33:21;10.85;74.17
74416;SHT31;62850;42.428;25.618;2024-03-02T09:35:47;10.87;74.42
74416;SHT31;62850;42.428;25.618;2024-03-02T09:38:14;10.99;73.89
74416;SHT31;62850;42.428;25.618;2024-03-02T09:40:41;11.09;74.18
74416;SHT31;62850;42.428;25.618;2024-03-02T09:43:07;11.20;73.63
74416;SHT31;62850;42.428;25.618;2024-03-02T09:45:32;11.23;73.31
74416;SHT31;62850;42.428;25.618;2024-03-02T09:47:58;11.33;74.24
74416;SHT31;62850;42.428;25.618;2024-03-02T09:50:24;11.32;73.06
74416;SHT31;62850;42.428;25.618;2024-03-02T09:52:50;11.36;72.81
74416;SHT31;62850;42.428;25.618;2024-03-02T09:55:16;11.37;72.82
74416;SHT31;62850;42.428;25.618;2024-03-02T09:57:43;11.40;72.79
74416;SHT31;62850;42.428;25.618;2024-03-02T10:00:09;11.42;72.79
74416;SHT31;62850;42.428;25.618;2024-03-02T10:02:40;11.40;72.76
74416;SHT31;62850;42.428;25.618;2024-03-02T10:05:06;11.37;72.47
74416;SHT31;62850;42.428;25.618;2024-03-02T10:07:32;11.35;72.61
74416;SHT31;62850;42.428;25.618;2024-03-02T10:09:58;11.33;72.63
74416;SHT31;62850;42.428;25.618;2024-03-02T10:12:24;11.29;72.81
74416;SHT31;62850;42.428;25.618;2024-03-02T10:15:03;11.25;72.88
74416;SHT31;62850;42.428;25.618;2024-03-02T10:17:31;11.33;72.67
74416;SHT31;62850;42.428;25.618;2024-03-02T10:19:56;11.36;72.62
74416;SHT31;62850;42.428;25.618;2024-03-02T10:22:23;11.29;72.79
74416;SHT31;62850;42.428;25.618;2024-03-02T10:24:49;11.33;72.69
74416;SHT31;62850;42.428;25.618;2024-03-02T10:27:26;11.43;72.90
74416;SHT31;62850;42.428;25.618;2024-03-02T10:29:52;11.40;72.73
74416;SHT31;62850;42.428;25.618;2024-03-02T10:32:17;11.44;72.80
74416;SHT31;62850;42.428;25.618;2024-03-02T10:34:45;11.42;72.64
74416;SHT31;62850;42.428;25.618;2024-03-02T10:37:12;11.37;72.71
74416;SHT31;62850;42.428;25.618;2024-03-02T10:39:39;11.44;72.47
74416;SHT31;62850;42.428;25.618;2024-03-02T10:42:06;11.49;72.36
74416;SHT31;62850;42.428;25.618;2024-03-02T10:44:32;11.49;72.26
74416;SHT31;62850;42.428;25.618;2024-03-02T10:47:04;11.47;72.33
74416;SHT31;62850;42.428;25.618;2024-03-02T10:49:31;11.46;72.48
74416;SHT31;62850;42.428;25.618;2024-03-02T10:51:59;11.42;72.49
74416;SHT31;62850;42.428;25.618;2024-03-02T10:54:25;11.55;72.26
74416;SHT31;62850;42.428;25.618;2024-03-02T10:57:03;11.60;71.90
74416;SHT31;62850;42.428;25.618;2024-03-02T10:59:33;11.57;72.05
74416;SHT31;62850;42.428;25.618;2024-03-02T11:02:00;11.64;71.88
74416;SHT31;62850;42.428;25.618;2024-03-02T11:04:27;11.66;71.81
74416;SHT31;62850;42.428;25.618;2024-03-02T11:07:13;11.64;71.29
74416;SHT31;62850;42.428;25.618;2024-03-02T11:09:41;11.71;71.28
74416;SHT31;62850;42.428;25.618;2024-03-02T11:12:23;11.70;71.10
74416;SHT31;62850;42.428;25.618;2024-03-02T11:14:51;11.74;71.18
74416;SHT31;62850;42.428;25.618;2024-03-02T11:17:20;11.84;71.06
74416;SHT31;62850;42.428;25.618;2024-03-02T11:19:46;11.59;71.22
74416;SHT31;62850;42.428;25.618;2024-03-02T11:22:13;11.55;71.54
74416;SHT31;62850;42.428;25.618;2024-03-02T11:24:38;11.56;71.51
74416;SHT31;62850;42.428;25.618;2024-03-02T11:27:05;11.63;71.16
74416;SHT31;62850;42.428;25.618;2024-03-02T11:32:25;11.67;71.17
74416;SHT31;62850;42.428;25.618;2024-03-02T11:34:51;11.71;71.11
74416;SHT31;62850;42.428;25.618;2024-03-02T11:37:18;11.76;71.24
74416;SHT31;62850;42.428;25.618;2024-03-02T11:39:46;11.84;70.86
74416;SHT31;62850;42.428;25.618;2024-03-02T11:42:12;11.98;70.57
74416;SHT31;62850;42.428;25.618;2024-03-02T11:44:50;12.10;70.50
74416;SHT31;62850;42.428;25.618;2024-03-02T11:47:16;12.17;69.99
74416;SHT31;62850;42.428;25.618;2024-03-02T11:49:48;12.15;69.47
74416;SHT31;62850;42.428;25.618;2024-03-02T11:52:14;11.98;69.97
74416;SHT31;62850;42.428;25.618;2024-03-02T11:54:46;11.98;70.15
74416;SHT31;62850;42.428;25.618;2024-03-02T11:57:13;12.10;69.86
74416;SHT31;62850;42.428;25.618;2024-03-02T11:59:40;12.11;70.10
74416;SHT31;62850;42.428;25.618;2024-03-02T12:02:06;12.25;70.07
74416;SHT31;62850;42.428;25.618;2024-03-02T12:04:31;12.32;69.60
74416;SHT31;62850;42.428;25.618;2024-03-02T12:06:59;12.35;69.62
74416;SHT31;62850;42.428;25.618;2024-03-02T12:09:26;12.42;69.56
74416;SHT31;62850;42.428;25.618;2024-03-02T12:12:09;12.53;68.69
74416;SHT31;62850;42.428;25.618;2024-03-02T12:14:37;12.49;68.95
74416;SHT31;62850;42.428;25.618;2024-03-02T12:17:04;12.46;69.06
74416;SHT31;62850;42.428;25.618;2024-03-02T12:19:31;12.41;69.38
74416;SHT31;62850;42.428;25.618;2024-03-02T12:21:57;12.49;69.27
74416;SHT31;62850;42.428;25.618;2024-03-02T12:24:23;12.44;69.12
74416;SHT31;62850;42.428;25.618;2024-03-02T12:26:50;12.31;69.60
74416;SHT31;62850;42.428;25.618;2024-03-02T12:29:15;12.41;69.26
74416;SHT31;62850;42.428;25.618;2024-03-02T12:31:44;12.52;69.05
74416;SHT31;62850;42.428;25.618;2024-03-02T12:34:13;12.48;69.42
74416;SHT31;62850;42.428;25.618;2024-03-02T12:36:40;12.41;69.38
74416;SHT31;62850;42.428;25.618;2024-03-02T12:39:08;12.45;69.49
74416;SHT31;62850;42.428;25.618;2024-03-02T12:41:36;12.52;69.09
74416;SHT31;62850;42.428;25.618;2024-03-02T12:44:03;12.49;68.84
74416;SHT31;62850;42.428;25.618;2024-03-02T12:46:28;12.46;69.27
74416;SHT31;62850;42.428;25.618;2024-03-02T12:48:54;12.55;68.86
74416;SHT31;62850;42.428;25.618;2024-03-02T12:51:20;12.57;68.58
74416;SHT31;62850;42.428;25.618;2024-03-02T12:53:45;12.49;69.49
74416;SHT31;62850;42.428;25.618;2024-03-02T12:56:11;12.55;68.94
74416;SHT31;62850;42.428;25.618;2024-03-02T12:58:40;12.56;68.81
74416;SHT31;62850;42.428;25.618;2024-03-02T13:01:08;12.53;68.91
74416;SHT31;62850;42.428;25.618;2024-03-02T13:03:38;12.59;68.77
74416;SHT31;62850;42.428;25.618;2024-03-02T13:06:05;12.59;68.72
74416;SHT31;62850;42.428;25.618;2024-03-02T13:08:31;12.56;68.72
74416;SHT31;62850;42.428;25.618;2024-03-02T13:10:57;12.52;68.67
74416;SHT31;62850;42.428;25.618;2024-03-02T13:13:22;12.52;70.13
74416;SHT31;62850;42.428;25.618;2024-03-02T13:15:48;12.49;69.14
74416;SHT31;62850;42.428;25.618;2024-03-02T13:18:14;12.53;68.89
74416;SHT31;62850;42.428;25.618;2024-03-02T13:20:39;12.49;68.91
74416;SHT31;62850;42.428;25.618;2024-03-02T13:23:05;12.45;68.96
74416;SHT31;62850;42.428;25.618;2024-03-02T13:25:31;12.46;69.48
74416;SHT31;62850;42.428;25.618;2024-03-02T13:27:57;12.38;69.42
74416;SHT31;62850;42.428;25.618;2024-03-02T13:30:23;12.32;70.20
74416;SHT31;62850;42.428;25.618;2024-03-02T13:32:49;12.46;69.85
74416;SHT31;62850;42.428;25.618;2024-03-02T13:35:14;12.56;69.27
74416;SHT31;62850;42.428;25.618;2024-03-02T13:37:40;12.57;69.45
74416;SHT31;62850;42.428;25.618;2024-03-02T13:40:06;12.60;69.52
74416;SHT31;62850;42.428;25.618;2024-03-02T13:42:31;12.60;69.03
74416;SHT31;62850;42.428;25.618;2024-03-02T13:44:57;12.69;70.01
74416;SHT31;62850;42.428;25.618;2024-03-02T13:47:23;12.76;69.25
74416;SHT31;62850;42.428;25.618;2024-03-02T13:49:48;12.76;69.40
74416;SHT31;62850;42.428;25.618;2024-03-02T13:52:14;12.83;69.42
74416;SHT31;62850;42.428;25.618;2024-03-02T13:54:45;12.76;70.02
74416;SHT31;62850;42.428;25.618;2024-03-02T13:57:11;12.75;69.18
74416;SHT31;62850;42.428;25.618;2024-03-02T13:59:38;12.75;68.89
74416;SHT31;62850;42.428;25.618;2024-03-02T14:02:04;12.76;68.71
74416;SHT31;62850;42.428;25.618;2024-03-02T14:04:31;12.79;69.39
74416;SHT31;62850;42.428;25.618;2024-03-02T14:06:57;12.77;68.55
74416;SHT31;62850;42.428;25.618;2024-03-02T14:09:22;12.77;68.70
74416;SHT31;62850;42.428;25.618;2024-03-02T14:11:50;12.87;69.02
74416;SHT31;62850;42.428;25.618;2024-03-02T14:14:15;12.90;68.51
74416;SHT31;62850;42.428;25.618;2024-03-02T14:16:41;12.93;68.63
74416;SHT31;62850;42.428;25.618;2024-03-02T14:19:06;12.96;68.56
74416;SHT31;62850;42.428;25.618;2024-03-02T14:21:32;12.96;68.24
74416;SHT31;62850;42.428;25.618;2024-03-02T14:23:57;12.96;67.93
74416;SHT31;62850;42.428;25.618;2024-03-02T14:26:23;12.84;67.96
74416;SHT31;62850;42.428;25.618;2024-03-02T14:28:48;12.80;67.95
74416;SHT31;62850;42.428;25.618;2024-03-02T14:31:14;12.77;68.44
74416;SHT31;62850;42.428;25.618;2024-03-02T14:33:39;12.72;68.67
74416;SHT31;62850;42.428;25.618;2024-03-02T14:36:05;12.73;68.97
74416;SHT31;62850;42.428;25.618;2024-03-02T14:38:31;12.73;68.63
74416;SHT31;62850;42.428;25.618;2024-03-02T14:40:57;12.73;68.60
74416;SHT31;62850;42.428;25.618;2024-03-02T14:43:22;12.77;69.21
74416;SHT31;62850;42.428;25.618;2024-03-02T14:45:48;12.80;68.62
74416;SHT31;62850;42.428;25.618;2024-03-02T14:48:14;12.79;68.50
74416;SHT31;62850;42.428;25.618;2024-03-02T14:50:40;12.82;68.56
74416;SHT31;62850;42.428;25.618;2024-03-02T14:53:05;12.80;68.66
74416;SHT31;62850;42.428;25.618;2024-03-02T14:55:33;12.83;68.65
74416;SHT31;62850;42.428;25.618;2024-03-02T14:57:59;12.77;68.43
74416;SHT31;62850;42.428;25.618;2024-03-02T15:00:25;12.76;68.85
74416;SHT31;62850;42.428;25.618;2024-03-02T15:02:50;12.72;68.80
74416;SHT31;62850;42.428;25.618;2024-03-02T15:05:16;12.72;68.69
74416;SHT31;62850;42.428;25.618;2024-03-02T15:07:41;12.70;68.96
74416;SHT31;62850;42.428;25.618;2024-03-02T15:10:07;12.69;69.06
74416;SHT31;62850;42.428;25.618;2024-03-02T15:12:33;12.69;68.69
74416;SHT31;62850;42.428;25.618;2024-03-02T15:14:58;12.67;68.69
74416;SHT31;62850;42.428;25.618;2024-03-02T15:17:24;12.63;69.60
74416;SHT31;62850;42.428;25.618;2024-03-02T15:19:50;12.65;69.35
74416;SHT31;62850;42.428;25.618;2024-03-02T15:22:15;12.65;69.26
74416;SHT31;62850;42.428;25.618;2024-03-02T15:24:41;12.60;69.29
74416;SHT31;62850;42.428;25.618;2024-03-02T15:27:07;12.60;69.86